createdAt,value
2019-02-06T00:03:34.709Z,99662.52
2019-02-06T00:08:39.132Z,99663.59
2019-02-06T00:13:43.365Z,99660.14
2019-02-06T00:18:47.646Z,99640.58
2019-02-06T00:23:51.898Z,99672.20
2019-02-06T00:28:57.173Z,99672.72
2019-02-06T00:34:01.397Z,99674.44
2019-02-06T00:39:09.737Z,99689.17
2019-02-06T00:44:14.051Z,99693.98
2019-02-06T00:49:18.303Z,99694.53
2019-02-06T00:54:22.891Z,99692.50
2019-02-06T00:59:27.327Z,99687.59
2019-02-06T01:04:31.784Z,99689.22
2019-02-06T01:09:36.610Z,99692.41
2019-02-06T01:14:41.291Z,99679.63
2019-02-06T01:19:45.651Z,99681.16
2019-02-06T01:24:50.165Z,99683.80
2019-02-06T01:29:54.421Z,99678.07
2019-02-06T01:34:58.846Z,99675.20
2019-02-06T01:40:03.111Z,99669.34
2019-02-06T01:45:09.547Z,99670.61
2019-02-06T01:50:15.182Z,99670.61
2019-02-06T01:55:19.446Z,99670.09
2019-02-06T02:00:24.711Z,99639.90
2019-02-06T02:05:29.268Z,99658.67
2019-02-06T02:10:33.552Z,99653.03
2019-02-06T02:15:38.183Z,99666.13
2019-02-06T02:20:42.466Z,99656.02
2019-02-06T02:25:46.800Z,99659.52
2019-02-06T02:30:54.540Z,99654.48
2019-02-06T02:35:58.813Z,99642.78
2019-02-06T02:41:03.106Z,99627.16
2019-02-06T02:46:07.382Z,99622.95
2019-02-06T02:51:11.743Z,99623.45
2019-02-06T02:56:16.019Z,99615.88
2019-02-06T03:01:39.217Z,99600.23
2019-02-06T03:06:43.583Z,99598.11
2019-02-06T03:11:48.009Z,99600.11
2019-02-06T03:16:52.624Z,99599.79
2019-02-06T03:21:56.910Z,99596.75
2019-02-06T03:27:01.252Z,99606.70
2019-02-06T03:32:05.824Z,99593.73
2019-02-06T03:37:10.339Z,99587.31
2019-02-06T03:42:14.606Z,99591.12
2019-02-06T03:47:19.070Z,99588.36
2019-02-06T03:52:23.335Z,99585.25
2019-02-06T03:57:27.758Z,99582.71
2019-02-06T04:02:32.054Z,99588.09
2019-02-06T04:07:36.299Z,99577.28
2019-02-06T04:12:40.667Z,99576.38
2019-02-06T04:17:44.934Z,99571.56
2019-02-06T04:22:49.191Z,99545.72
2019-02-06T04:27:53.452Z,99566.81
2019-02-06T04:32:57.708Z,99565.78
2019-02-06T04:38:02.017Z,99564.55
2019-02-06T04:43:06.730Z,99563.01
2019-02-06T04:48:10.984Z,99569.22
2019-02-06T04:53:15.259Z,99553.48
2019-02-06T04:58:19.530Z,99557.13
2019-02-06T05:03:25.878Z,99552.84
2019-02-06T05:08:31.950Z,99546.59
2019-02-06T05:13:36.210Z,99551.48
2019-02-06T05:18:40.551Z,99538.81
2019-02-06T05:23:44.806Z,99545.78
2019-02-06T05:28:49.160Z,99549.20
2019-02-06T05:33:53.420Z,99544.95
2019-02-06T05:38:57.963Z,99544.37
2019-02-06T05:44:02.342Z,99549.95
2019-02-06T05:49:08.683Z,99544.23
2019-02-06T05:54:12.957Z,99555.19
2019-02-06T05:59:17.289Z,99548.27
2019-02-06T06:04:22.544Z,99543.48
2019-02-06T06:09:26.791Z,99540.05
2019-02-06T06:14:31.060Z,99538.35
2019-02-06T06:19:35.404Z,99529.55
2019-02-06T06:24:39.922Z,99518.73
2019-02-06T06:29:44.222Z,99514.73
2019-02-06T06:34:48.508Z,99496.67
2019-02-06T06:39:52.822Z,99511.50
2019-02-06T06:44:57.142Z,99510.07
2019-02-06T06:50:01.438Z,99520.37
2019-02-06T06:55:05.902Z,99522.13
2019-02-06T07:00:19.225Z,99519.64
2019-02-06T07:05:23.650Z,99526.23
2019-02-06T07:10:28.035Z,99523.27
2019-02-06T07:15:34.015Z,99524.88
2019-02-06T07:20:38.276Z,99524.86
2019-02-06T07:25:42.542Z,99528.25
2019-02-06T07:30:46.942Z,99539.03
2019-02-06T07:35:51.215Z,99543.36
2019-02-06T07:40:55.593Z,99539.84
2019-02-06T07:45:59.848Z,99537.05
2019-02-06T07:51:04.110Z,99531.57
2019-02-06T07:56:08.357Z,99530.63
2019-02-06T08:01:21.957Z,99533.02
2019-02-06T08:06:26.324Z,99540.46
2019-02-06T08:11:30.570Z,99542.55
2019-02-06T08:16:34.900Z,99544.17
2019-02-06T08:21:39.148Z,99538.77
2019-02-06T08:26:43.411Z,99544.25
2019-02-06T08:31:47.683Z,99539.66
2019-02-06T08:36:52.015Z,99543.87
2019-02-06T08:41:56.270Z,99537.71
2019-02-06T08:47:00.623Z,99520.06
2019-02-06T08:52:04.990Z,99544.48
2019-02-06T08:57:09.272Z,99542.88
2019-02-06T09:02:13.518Z,99531.34
2019-02-06T09:07:17.816Z,99529.91
2019-02-06T09:12:22.154Z,99522.65
2019-02-06T09:17:26.620Z,99516.78
2019-02-06T09:22:30.951Z,99520.59
2019-02-06T09:27:35.572Z,99522.19
2019-02-06T09:32:39.925Z,99515.20
2019-02-06T09:37:44.174Z,99519.18
2019-02-06T09:42:48.502Z,99516.03
2019-02-06T09:47:52.751Z,99507.78
2019-02-06T09:52:57.592Z,99512.63
2019-02-06T09:58:01.841Z,99502.26
2019-02-06T10:03:07.112Z,99503.29
2019-02-06T10:08:11.425Z,99496.63
2019-02-06T10:13:16.555Z,99494.78
2019-02-06T10:18:21.197Z,99486.07
2019-02-06T10:23:26.911Z,99465.25
2019-02-06T10:28:31.487Z,99458.66
2019-02-06T10:33:35.993Z,99480.53
2019-02-06T10:38:40.284Z,99477.16
2019-02-06T10:43:44.596Z,99467.10
2019-02-06T10:48:48.963Z,99460.50
2019-02-06T10:53:53.669Z,99460.90
2019-02-06T10:58:57.976Z,99453.48
2019-02-06T11:04:02.330Z,99451.07
2019-02-06T11:09:08.340Z,99442.96
2019-02-06T11:14:12.632Z,99433.47
2019-02-06T11:19:17.621Z,99407.33
2019-02-06T11:24:21.974Z,99418.12
2019-02-06T11:29:26.261Z,99412.37
2019-02-06T11:34:30.665Z,99410.08
2019-02-06T11:39:35.046Z,99407.88
2019-02-06T11:44:41.862Z,99398.03
2019-02-06T11:49:47.340Z,99389.85
2019-02-06T11:54:51.643Z,99381.45
2019-02-06T11:59:55.933Z,99373.27
2019-02-06T12:05:00.470Z,99363.09
2019-02-06T12:10:10.111Z,99364.86
2019-02-06T12:15:16.825Z,99349.89
2019-02-06T12:20:21.603Z,99336.43
2019-02-06T12:25:26.230Z,99329.91
2019-02-06T12:30:31.772Z,99313.07
2019-02-06T12:35:41.524Z,99311.05
2019-02-06T12:40:46.478Z,99306.61
2019-02-06T12:45:50.912Z,99308.53
2019-02-06T12:50:55.237Z,99295.72
2019-02-06T12:56:01.337Z,99289.95
2019-02-06T13:01:07.962Z,99285.09
2019-02-06T13:06:27.182Z,99285.31
2019-02-06T13:11:31.635Z,99284.64
2019-02-06T13:16:35.924Z,99262.00
2019-02-06T13:21:40.294Z,99262.00
2019-02-06T13:26:44.728Z,99260.05
2019-02-06T13:31:49.379Z,99253.92
2019-02-06T13:36:53.670Z,99249.61
2019-02-06T13:41:57.952Z,99245.78
2019-02-06T13:47:02.274Z,99236.81
2019-02-06T13:52:06.735Z,99228.61
2019-02-06T13:57:11.249Z,99232.28
2019-02-06T14:02:15.586Z,99216.42
2019-02-06T14:07:19.839Z,99202.30
2019-02-06T14:12:24.567Z,99205.73
2019-02-06T14:17:28.984Z,99212.69
2019-02-06T14:22:33.718Z,99206.98
2019-02-06T14:27:50.982Z,99189.47
2019-02-06T14:33:42.790Z,99196.96
2019-02-06T14:39:14.512Z,99198.09
2019-02-06T14:45:24.355Z,99193.83
2019-02-06T14:50:53.882Z,99190.72
2019-02-06T14:56:22.792Z,99189.31
2019-02-06T15:02:09.776Z,99172.54
2019-02-06T15:07:36.140Z,99164.09
2019-02-06T15:13:13.910Z,99150.92
2019-02-06T15:18:45.543Z,99142.66
2019-02-06T15:24:23.794Z,99137.72
2019-02-06T15:29:55.366Z,99136.38
2019-02-06T15:35:39.534Z,99127.12
2019-02-06T15:41:18.393Z,99128.38
2019-02-06T15:46:59.182Z,99129.16
2019-02-06T15:52:25.233Z,99130.95
2019-02-06T15:58:04.086Z,99121.69
2019-02-06T16:04:28.849Z,99123.25
2019-02-06T16:10:00.350Z,99138.75
2019-02-06T16:15:22.624Z,99136.80
2019-02-06T16:20:54.909Z,99137.05
2019-02-06T16:26:38.045Z,99131.09
2019-02-06T16:32:10.257Z,99131.09
2019-02-06T16:37:46.301Z,99130.09
2019-02-06T16:43:24.350Z,99122.42
2019-02-06T16:49:10.628Z,99122.34
2019-02-06T16:54:38.150Z,99117.20
2019-02-06T17:00:28.614Z,99098.59
2019-02-06T17:06:06.508Z,99096.59
2019-02-06T17:11:31.195Z,99090.23
2019-02-06T17:17:07.078Z,99087.58
2019-02-06T17:22:41.464Z,99084.30
2019-02-06T17:28:23.781Z,99095.10
2019-02-06T17:34:21.062Z,99116.15
2019-02-06T17:40:22.368Z,99120.82
2019-02-06T17:46:06.636Z,99102.82
2019-02-06T17:52:07.390Z,99101.16
2019-02-06T17:57:11.652Z,99096.86
2019-02-06T18:02:16.451Z,99092.64
2019-02-06T18:07:21.025Z,99086.01
2019-02-06T18:12:26.978Z,99082.89
2019-02-06T18:17:31.599Z,99086.90
2019-02-06T18:22:35.856Z,99091.31
2019-02-06T18:27:40.269Z,99090.06
2019-02-06T18:32:44.653Z,99073.56
2019-02-06T18:37:51.162Z,99074.27
2019-02-06T18:42:55.740Z,99062.83
2019-02-06T18:48:02.194Z,99072.23
2019-02-06T18:53:07.495Z,99071.45
2019-02-06T18:58:12.446Z,99071.51
2019-02-06T19:03:22.450Z,99073.79
2019-02-06T19:08:26.725Z,99073.78
2019-02-06T19:13:31.077Z,99055.26
2019-02-06T19:18:37.321Z,99058.16
2019-02-06T19:23:41.412Z,99048.73
2019-02-06T19:28:45.668Z,99039.61
2019-02-06T19:33:50.095Z,99023.13
2019-02-06T19:38:54.367Z,99010.42
2019-02-06T19:43:58.713Z,99009.41
2019-02-06T19:49:02.974Z,99005.11
2019-02-06T19:54:07.259Z,98997.55
2019-02-06T19:59:11.629Z,98989.62
2019-02-06T20:04:15.975Z,98985.20
2019-02-06T20:09:20.457Z,98986.80
2019-02-06T20:14:24.846Z,98987.75
2019-02-06T20:19:29.088Z,98981.59
2019-02-06T20:24:33.438Z,98979.84
2019-02-06T20:29:37.820Z,98970.54
2019-02-06T20:34:42.649Z,98961.28
2019-02-06T20:39:46.953Z,98964.02
2019-02-06T20:44:51.274Z,98951.20
2019-02-06T20:49:55.537Z,98953.50
2019-02-06T20:54:59.789Z,98947.48
2019-02-06T21:00:05.500Z,98942.13
2019-02-06T21:05:11.375Z,98945.61
2019-02-06T21:10:20.613Z,98942.99
2019-02-06T21:15:25.081Z,98937.02
2019-02-06T21:20:29.956Z,98934.19
2019-02-06T21:25:34.775Z,98934.58
2019-02-06T21:30:39.349Z,98922.42
2019-02-06T21:35:43.693Z,98927.40
2019-02-06T21:40:48.091Z,98929.73
2019-02-06T21:45:52.458Z,98919.05
2019-02-06T21:50:58.024Z,98912.58
2019-02-06T21:56:02.333Z,98905.23
2019-02-06T22:01:06.676Z,98897.53
2019-02-06T22:06:11.002Z,98885.84
2019-02-06T22:11:15.341Z,98886.84
2019-02-06T22:16:19.814Z,98874.70
2019-02-06T22:21:24.117Z,98866.44
2019-02-06T22:26:28.751Z,98864.86
2019-02-06T22:31:33.100Z,98858.84
2019-02-06T22:36:37.377Z,98864.44
2019-02-06T22:41:41.638Z,98869.15
2019-02-06T22:46:46.004Z,98856.82
2019-02-06T22:51:50.514Z,98844.54
2019-02-06T22:56:54.996Z,98842.58
2019-02-06T23:01:59.980Z,98838.20
2019-02-06T23:07:07.129Z,98833.64
2019-02-06T23:12:10.601Z,98827.91
2019-02-06T23:17:14.921Z,98818.45
2019-02-06T23:22:19.225Z,98822.55
2019-02-06T23:27:23.912Z,98811.78
2019-02-06T23:32:28.732Z,98805.67
2019-02-06T23:37:33.952Z,98784.43
2019-02-06T23:42:38.266Z,98790.42
2019-02-06T23:47:42.933Z,98779.45
2019-02-06T23:52:47.304Z,98774.47
2019-02-06T23:57:51.644Z,98764.87
